Etusivu
METAR-TAF:

METAR-TAF

Lentoasemat :

Eastern Oregon Regional Airport at Pendleton

Pendleton, Oregon, Yhdysvallat

Leveyspiiri: 45-41-54N, Pituuspiiri: 118-50-03W, korkeus merenpinnasta: 455 m

Tämänhetkinen sää

Tämä raportti tehtiin 45 minuuttia sitten, kello 13.53 UTC
Tuuli 5 kn kaakosta
Lämpötila 9°C
Kosteus 76%
Ilmanpaine 1022 hPa
Näkyvyys: 16.1 km
selkeää

METAR: KPDT 291353Z 13005KT 10SM CLR 09/05 A3019 RMK AO2 SLP218 T00890050

Aika: 07:38 (14:38 UTC)

Sääennuste

Tämä raportti tehtiin 3 tuntia ja 18 minuuttia sitten, kello 11.20 UTC
Ennuste voimassa 29. päivästä klo 12 UTC - 30. päivään klo 12 UTC
Tuuli 4 kn eri suunnista
Näkyvyys: 10 km
selkeää
From 29. päivästä klo 2100 UTC
Tuuli 6 kn pohjoisen/luoteesta
Näkyvyys: 10 km
selkeää
From 30. päivästä klo 0400 UTC
Tuuli 6 kn kaakosta
Näkyvyys: 10 km
selkeää

TAF: KPDT 291120Z 2912/3012 VRB04KT P6SM SKC FM292100 34006KT P6SM SKC FM300400 14006KT P6SM SKC

Säähavainnot ja -ennusteet yli 4000 lentoasemalta (METAR- ja TAF-raportit).

Käytössä olevat sääasemat on merkitty karttaan keltaisilla ja punaisilla pisteillä.

Aseta hiiri pisteen päälle nähdäksesi sääaseman nimen.

Klikkaa sitten nähdäksesi säähavainnot ja -ennusteet.

Kartan vaihtaminen: klikkaa mustalla rastilla varustettuja vihreitä pisteitä, niin voit zoomata sisään; viivalla varustettua vihreää pistettä, niin voit zoomata ulos tai vihreitä nuolia, niin pääset viereisille kartoille.


METAR-TAF: